createdAt,value
2022-07-30T00:02:05.987Z,5.13
2022-07-30T00:04:40.345Z,4.88
2022-07-30T00:07:07.238Z,5.50
2022-07-30T00:09:36.222Z,5.38
2022-07-30T00:12:05.096Z,4.53
2022-07-30T00:14:32.805Z,4.28
2022-07-30T00:17:02.204Z,3.97
2022-07-30T00:19:30.743Z,4.50
2022-07-30T00:21:58.588Z,4.13
2022-07-30T00:24:26.647Z,4.00
2022-07-30T00:26:53.585Z,3.70
2022-07-30T00:29:20.623Z,3.90
2022-07-30T00:31:47.442Z,4.15
2022-07-30T00:34:14.444Z,3.75
2022-07-30T00:36:41.340Z,3.42
2022-07-30T00:39:08.299Z,3.45
2022-07-30T00:41:37.891Z,3.53
2022-07-30T00:44:05.086Z,3.95
2022-07-30T00:46:31.925Z,4.68
2022-07-30T00:48:58.823Z,4.20
2022-07-30T00:51:25.793Z,3.78
2022-07-30T00:53:52.688Z,4.45
2022-07-30T00:56:19.561Z,4.32
2022-07-30T00:58:46.579Z,3.78
2022-07-30T01:01:13.479Z,3.60
2022-07-30T01:03:40.342Z,4.05
2022-07-30T01:06:07.188Z,4.18
2022-07-30T01:08:43.266Z,4.45
2022-07-30T01:11:11.603Z,4.40
2022-07-30T01:13:44.121Z,4.68
2022-07-30T01:16:11.609Z,4.30
2022-07-30T01:19:01.012Z,4.70
2022-07-30T01:21:36.824Z,5.28
2022-07-30T01:24:29.174Z,4.93
2022-07-30T01:26:57.529Z,4.63
2022-07-30T01:29:28.306Z,4.22
2022-07-30T01:32:00.109Z,4.05
2022-07-30T01:34:34.613Z,4.88
2022-07-30T01:37:04.951Z,4.53
2022-07-30T01:39:33.381Z,4.72
2022-07-30T01:42:05.333Z,4.68
2022-07-30T01:44:33.751Z,4.78
2022-07-30T01:47:03.085Z,4.97
2022-07-30T01:49:33.940Z,4.75
2022-07-30T01:52:04.163Z,4.38
2022-07-30T01:54:33.629Z,4.47
2022-07-30T01:57:02.874Z,4.95
2022-07-30T01:59:35.283Z,5.07
2022-07-30T02:02:02.972Z,4.95
2022-07-30T02:04:30.397Z,4.57
2022-07-30T02:07:10.462Z,4.55
2022-07-30T02:09:53.006Z,4.55
2022-07-30T02:15:25.892Z,5.13
2022-07-30T02:18:17.544Z,5.05
2022-07-30T02:20:58.777Z,5.15
2022-07-30T02:23:28.896Z,4.68
2022-07-30T02:25:59.679Z,5.38
2022-07-30T02:28:28.813Z,4.47
2022-07-30T02:31:01.326Z,5.15
2022-07-30T02:33:48.465Z,5.72
2022-07-30T02:36:18.770Z,5.30
2022-07-30T02:38:50.636Z,4.97
2022-07-30T02:41:29.495Z,5.50
2022-07-30T02:43:58.253Z,5.40
2022-07-30T02:46:26.464Z,6.30
2022-07-30T02:49:35.659Z,4.72
2022-07-30T02:52:08.874Z,5.60
2022-07-30T02:54:39.177Z,5.75
2022-07-30T02:57:08.228Z,6.03
2022-07-30T02:59:41.924Z,5.70
2022-07-30T03:02:12.119Z,5.43
2022-07-30T03:04:42.834Z,4.38
2022-07-30T03:07:11.581Z,5.00
2022-07-30T03:09:51.141Z,5.43
2022-07-30T03:12:21.724Z,5.28
2022-07-30T03:14:48.711Z,5.30
2022-07-30T03:17:17.751Z,5.68
2022-07-30T03:19:49.356Z,5.85
2022-07-30T03:22:19.880Z,5.28
2022-07-30T03:24:49.260Z,5.57
2022-07-30T03:27:18.115Z,6.53
2022-07-30T03:29:47.350Z,5.70
2022-07-30T03:32:15.035Z,5.20
2022-07-30T03:34:43.882Z,5.82
2022-07-30T03:37:13.814Z,6.65
2022-07-30T03:39:41.822Z,6.30
2022-07-30T03:42:09.284Z,5.13
2022-07-30T03:44:39.287Z,6.00
2022-07-30T03:47:08.598Z,5.70
2022-07-30T03:49:42.705Z,5.30
2022-07-30T03:52:10.976Z,5.68
2022-07-30T03:54:38.281Z,5.10
2022-07-30T03:57:25.580Z,6.20
2022-07-30T03:59:52.906Z,5.97
2022-07-30T04:02:21.302Z,5.38
2022-07-30T04:05:02.730Z,4.97
2022-07-30T04:07:29.621Z,5.55
2022-07-30T04:09:56.584Z,6.07
2022-07-30T04:12:49.241Z,6.32
2022-07-30T04:16:38.454Z,6.20
2022-07-30T04:18:06.402Z,6.03
2022-07-30T04:20:41.647Z,5.50
2022-07-30T04:23:10.585Z,5.95
2022-07-30T04:25:40.688Z,5.47
2022-07-30T04:28:10.429Z,5.70
2022-07-30T04:30:37.843Z,6.50
2022-07-30T04:33:05.363Z,5.70
2022-07-30T04:35:50.686Z,5.05
2022-07-30T04:38:25.585Z,6.18
2022-07-30T04:40:52.494Z,5.70
2022-07-30T04:43:19.424Z,5.70
2022-07-30T04:45:46.660Z,6.25
2022-07-30T04:48:13.666Z,6.05
2022-07-30T04:51:06.635Z,5.72
2022-07-30T04:53:35.540Z,5.68
2022-07-30T04:56:04.916Z,6.13
2022-07-30T04:58:34.834Z,6.43
2022-07-30T05:01:03.675Z,6.20
2022-07-30T05:03:34.143Z,6.10
2022-07-30T05:06:02.551Z,6.38
2022-07-30T05:08:33.166Z,6.47
2022-07-30T05:11:04.556Z,6.60
2022-07-30T05:13:38.078Z,6.80
2022-07-30T05:16:07.492Z,6.45
2022-07-30T05:18:35.174Z,5.80
2022-07-30T05:21:02.017Z,6.63
2022-07-30T05:23:32.770Z,6.47
2022-07-30T05:26:12.930Z,6.82
2022-07-30T05:28:44.995Z,6.75
2022-07-30T05:31:18.411Z,6.03
2022-07-30T05:36:25.541Z,6.65
2022-07-30T05:38:52.446Z,6.60
2022-07-30T05:41:32.848Z,6.22
2022-07-30T05:44:01.802Z,6.35
2022-07-30T05:46:31.146Z,6.40
2022-07-30T05:48:58.405Z,6.47
2022-07-30T05:51:25.340Z,6.10
2022-07-30T05:53:52.435Z,6.45
2022-07-30T05:56:38.030Z,6.03
2022-07-30T05:59:16.010Z,6.72
2022-07-30T06:02:15.154Z,7.22
2022-07-30T06:04:56.903Z,6.30
2022-07-30T06:07:24.056Z,7.70
2022-07-30T06:09:53.665Z,7.90
2022-07-30T06:12:20.970Z,6.05
2022-07-30T06:14:48.487Z,7.15
2022-07-30T06:17:22.238Z,6.90
2022-07-30T06:20:11.795Z,7.15
2022-07-30T06:22:50.750Z,7.07
2022-07-30T06:25:24.555Z,7.10
2022-07-30T06:27:51.496Z,5.75
2022-07-30T06:30:18.476Z,6.60
2022-07-30T06:32:48.832Z,5.93
2022-07-30T06:35:17.220Z,6.45
2022-07-30T06:37:58.822Z,6.10
2022-07-30T06:40:32.110Z,7.28
2022-07-30T06:43:19.129Z,6.05
2022-07-30T06:46:03.318Z,6.28
2022-07-30T06:48:37.369Z,6.13
2022-07-30T06:51:06.032Z,6.13
2022-07-30T06:53:33.369Z,5.57
2022-07-30T06:56:14.580Z,5.22
2022-07-30T06:58:57.726Z,5.35
2022-07-30T07:01:43.405Z,5.55
2022-07-30T07:04:11.855Z,5.32
2022-07-30T07:06:39.896Z,4.35
2022-07-30T07:09:08.127Z,4.38
2022-07-30T07:11:50.389Z,5.03
2022-07-30T07:14:19.743Z,4.70
2022-07-30T07:16:49.944Z,4.93
2022-07-30T07:20:01.112Z,4.80
2022-07-30T07:22:22.722Z,4.90
2022-07-30T07:24:49.743Z,5.80
2022-07-30T07:27:23.727Z,4.50
2022-07-30T07:30:01.837Z,4.97
2022-07-30T07:32:35.364Z,5.25
2022-07-30T07:35:03.851Z,4.25
2022-07-30T07:37:32.168Z,4.20
2022-07-30T07:39:59.281Z,12.88
2022-07-30T07:42:27.381Z,4.28
2022-07-30T07:44:54.562Z,4.10
2022-07-30T07:47:21.586Z,4.35
2022-07-30T07:50:03.871Z,4.72
2022-07-30T07:52:31.479Z,5.03
2022-07-30T07:54:58.635Z,4.03
2022-07-30T07:57:27.042Z,4.30
2022-07-30T07:59:55.441Z,4.80
2022-07-30T08:02:27.146Z,4.93
2022-07-30T08:05:07.039Z,4.03
2022-07-30T08:07:52.998Z,4.65
2022-07-30T08:10:23.386Z,4.80
2022-07-30T08:13:04.033Z,5.70
2022-07-30T08:15:50.322Z,5.28
2022-07-30T08:18:43.482Z,5.63
2022-07-30T08:21:27.413Z,5.80
2022-07-30T08:23:54.657Z,6.78
2022-07-30T08:26:23.121Z,6.35
2022-07-30T08:28:50.271Z,6.78
2022-07-30T08:31:21.814Z,7.20
2022-07-30T08:33:49.157Z,7.30
2022-07-30T08:36:16.556Z,6.32
2022-07-30T08:38:44.858Z,7.78
2022-07-30T08:41:12.615Z,6.32
2022-07-30T08:43:40.598Z,6.68
2022-07-30T08:46:12.299Z,6.57
2022-07-30T08:48:54.787Z,7.35
2022-07-30T08:51:23.835Z,6.47
2022-07-30T08:54:10.836Z,6.63
2022-07-30T08:56:38.467Z,6.07
2022-07-30T08:59:07.880Z,5.68
2022-07-30T09:01:34.967Z,5.97
2022-07-30T09:04:02.153Z,5.88
2022-07-30T09:06:29.451Z,6.00
2022-07-30T09:08:56.498Z,5.70
2022-07-30T09:11:23.439Z,5.22
2022-07-30T09:13:51.281Z,5.97
2022-07-30T09:16:26.484Z,5.15
2022-07-30T09:18:57.083Z,5.82
2022-07-30T09:21:28.434Z,4.88
2022-07-30T09:24:13.936Z,5.32
2022-07-30T09:27:05.239Z,5.90
2022-07-30T09:29:59.432Z,6.53
2022-07-30T09:32:57.398Z,5.45
2022-07-30T09:35:43.846Z,7.28
2022-07-30T09:38:12.228Z,6.85
2022-07-30T09:41:00.125Z,7.47
2022-07-30T09:43:52.561Z,7.32
2022-07-30T09:46:48.280Z,8.52
2022-07-30T09:49:27.793Z,8.70
2022-07-30T09:51:57.701Z,7.72
2022-07-30T09:54:51.344Z,7.30
2022-07-30T09:57:27.535Z,8.20
2022-07-30T10:00:23.718Z,7.43
2022-07-30T10:03:43.056Z,7.63
2022-07-30T10:06:38.333Z,7.50
2022-07-30T10:09:37.255Z,6.60
2022-07-30T10:12:10.642Z,7.20
2022-07-30T10:14:47.076Z,7.28
2022-07-30T10:17:18.123Z,7.90
2022-07-30T10:20:12.759Z,6.88
2022-07-30T10:22:58.918Z,6.35
2022-07-30T10:25:36.912Z,6.90
2022-07-30T10:28:39.619Z,6.35
2022-07-30T10:31:08.360Z,6.40
2022-07-30T10:33:54.956Z,7.90
2022-07-30T10:36:24.522Z,5.90
2022-07-30T10:38:54.168Z,5.57
2022-07-30T10:41:53.980Z,5.80
2022-07-30T10:45:01.118Z,6.35
2022-07-30T10:47:33.350Z,6.60
2022-07-30T10:50:22.470Z,6.22
2022-07-30T10:52:54.782Z,5.35
2022-07-30T10:55:39.077Z,6.03
2022-07-30T10:58:06.582Z,5.55
2022-07-30T11:00:54.574Z,6.15
2022-07-30T11:03:40.410Z,5.03
2022-07-30T11:06:31.967Z,5.32
2022-07-30T11:08:58.987Z,5.30
2022-07-30T11:12:01.366Z,4.90
2022-07-30T11:14:15.905Z,5.32
2022-07-30T11:16:42.909Z,5.20
2022-07-30T11:19:55.752Z,5.53
2022-07-30T11:22:51.081Z,4.95
2022-07-30T11:25:27.543Z,4.82
2022-07-30T11:28:40.568Z,5.55
2022-07-30T11:31:56.527Z,4.50
2022-07-30T11:34:27.664Z,5.35
2022-07-30T11:37:18.199Z,5.10
2022-07-30T11:39:58.055Z,4.43
2022-07-30T11:42:34.976Z,4.05
2022-07-30T11:45:18.071Z,4.57
2022-07-30T11:47:52.000Z,4.68
2022-07-30T11:50:29.810Z,4.30
2022-07-30T11:53:22.493Z,4.28
2022-07-30T11:55:58.413Z,3.67
2022-07-30T11:58:37.187Z,4.00
2022-07-30T12:01:17.293Z,4.30
2022-07-30T12:03:45.527Z,4.80
2022-07-30T12:06:23.445Z,4.90
2022-07-30T12:08:58.233Z,3.72
2022-07-30T12:11:36.808Z,5.35
2022-07-30T12:14:05.137Z,3.97
2022-07-30T12:16:34.571Z,4.25
2022-07-30T12:19:06.243Z,3.95
2022-07-30T12:21:34.385Z,3.58
2022-07-30T12:24:07.449Z,3.40
2022-07-30T12:26:35.645Z,3.13
2022-07-30T12:29:13.684Z,3.40
2022-07-30T12:31:42.314Z,3.50
2022-07-30T12:34:26.590Z,3.08
2022-07-30T12:36:55.019Z,2.80
2022-07-30T12:39:27.057Z,3.15
2022-07-30T12:41:56.168Z,3.05
2022-07-30T12:44:46.482Z,4.03
2022-07-30T12:47:25.283Z,4.30
2022-07-30T12:49:55.490Z,4.30
2022-07-30T12:52:32.224Z,4.72
2022-07-30T12:55:02.395Z,4.43
2022-07-30T12:58:07.912Z,4.50
2022-07-30T13:00:45.091Z,4.07
2022-07-30T13:03:39.323Z,4.03
2022-07-30T13:06:19.668Z,4.47
2022-07-30T13:08:51.084Z,4.15
2022-07-30T13:11:21.145Z,4.32
2022-07-30T13:13:49.465Z,3.85
2022-07-30T13:16:19.399Z,3.50
2022-07-30T13:18:47.196Z,3.30
2022-07-30T13:21:14.571Z,2.72
2022-07-30T13:23:42.459Z,2.80
2022-07-30T13:26:11.008Z,2.60
2022-07-30T13:28:38.478Z,2.60
2022-07-30T13:31:07.479Z,2.25
2022-07-30T13:33:36.004Z,2.92
2022-07-30T13:36:03.450Z,3.00
2022-07-30T13:38:31.402Z,2.70
2022-07-30T13:41:02.422Z,2.55
2022-07-30T13:43:55.065Z,2.63
2022-07-30T13:46:21.996Z,2.30
2022-07-30T13:48:49.149Z,2.72
2022-07-30T13:51:16.473Z,2.78
2022-07-30T13:53:43.517Z,2.67
2022-07-30T13:56:12.894Z,2.97
2022-07-30T13:58:40.801Z,2.20
2022-07-30T14:01:07.856Z,2.47
2022-07-30T14:03:35.347Z,2.60
2022-07-30T14:06:10.974Z,2.60
2022-07-30T14:08:39.960Z,2.70
2022-07-30T14:11:07.057Z,2.25
2022-07-30T14:13:34.002Z,2.47
2022-07-30T14:16:00.815Z,2.10
2022-07-30T14:18:27.654Z,2.30
2022-07-30T14:20:54.604Z,3.20
2022-07-30T14:23:21.567Z,2.75
2022-07-30T14:25:48.691Z,2.03
2022-07-30T14:28:15.815Z,2.20
2022-07-30T14:30:42.994Z,2.00
2022-07-30T14:33:10.806Z,2.03
2022-07-30T14:35:37.855Z,1.77
2022-07-30T14:38:05.763Z,1.80
2022-07-30T14:40:32.627Z,1.75
2022-07-30T14:42:59.571Z,1.95
2022-07-30T14:45:26.664Z,1.85
2022-07-30T14:47:56.295Z,1.77
2022-07-30T14:50:23.290Z,1.88
2022-07-30T14:52:51.949Z,1.88
2022-07-30T14:55:19.024Z,1.95
2022-07-30T14:57:45.942Z,1.80
2022-07-30T15:00:13.499Z,1.63
2022-07-30T15:02:40.876Z,1.45
2022-07-30T15:05:09.048Z,2.13
2022-07-30T15:07:36.146Z,1.30
2022-07-30T15:10:04.710Z,1.60
2022-07-30T15:12:31.569Z,1.35
2022-07-30T15:14:58.627Z,1.77
2022-07-30T15:17:26.306Z,1.50
2022-07-30T15:19:53.145Z,1.40
2022-07-30T15:22:20.577Z,1.60
2022-07-30T15:24:48.635Z,1.70
2022-07-30T15:27:15.711Z,1.38
2022-07-30T15:29:42.777Z,1.50
2022-07-30T15:32:09.857Z,1.40
2022-07-30T15:34:40.027Z,1.30
2022-07-30T15:37:19.692Z,1.55
2022-07-30T15:39:46.621Z,1.30
2022-07-30T15:42:13.521Z,1.40
2022-07-30T15:44:49.123Z,1.55
2022-07-30T15:47:32.683Z,1.40
2022-07-30T15:49:59.854Z,1.55
2022-07-30T15:56:46.196Z,1.50
2022-07-30T15:59:59.522Z,1.92
2022-07-30T16:03:08.315Z,1.70
2022-07-30T16:05:55.244Z,1.48
2022-07-30T16:08:22.376Z,1.35
2022-07-30T16:10:49.908Z,1.63
2022-07-30T16:13:16.888Z,1.73
2022-07-30T16:15:44.947Z,1.75
2022-07-30T16:18:11.874Z,1.90
2022-07-30T16:20:38.822Z,1.40
2022-07-30T16:23:11.786Z,1.45
2022-07-30T16:28:06.926Z,1.80
2022-07-30T16:30:33.764Z,1.60
2022-07-30T16:33:00.618Z,1.25
2022-07-30T16:35:27.495Z,1.42
2022-07-30T16:37:57.230Z,1.23
2022-07-30T16:40:24.089Z,1.38
2022-07-30T16:42:52.224Z,1.30
2022-07-30T16:45:19.070Z,1.42
2022-07-30T16:47:46.043Z,1.30
2022-07-30T16:50:12.884Z,1.48
2022-07-30T16:52:39.755Z,1.40
2022-07-30T16:55:07.780Z,1.48
2022-07-30T16:57:34.866Z,1.63
2022-07-30T17:00:03.526Z,2.45
2022-07-30T17:02:30.439Z,1.45
2022-07-30T17:04:57.321Z,1.70
2022-07-30T17:07:24.223Z,1.65
2022-07-30T17:09:52.758Z,1.27
2022-07-30T17:12:23.959Z,1.42
2022-07-30T17:14:53.955Z,1.42
2022-07-30T17:17:20.784Z,1.40
2022-07-30T17:19:47.690Z,1.48
2022-07-30T17:22:14.603Z,1.70
2022-07-30T17:24:41.717Z,1.67
2022-07-30T17:27:08.611Z,2.17
2022-07-30T17:29:49.725Z,2.00
2022-07-30T17:32:21.480Z,1.33
2022-07-30T17:34:49.619Z,1.42
2022-07-30T17:37:17.044Z,1.85
2022-07-30T17:40:19.093Z,1.67
2022-07-30T17:42:30.730Z,1.30
2022-07-30T17:44:59.386Z,1.52
2022-07-30T17:47:26.245Z,1.73
2022-07-30T17:49:53.329Z,1.63
2022-07-30T17:52:24.566Z,1.60
2022-07-30T17:54:53.821Z,1.50
2022-07-30T17:57:21.179Z,1.80
2022-07-30T17:59:48.078Z,1.42
2022-07-30T18:02:15.093Z,1.83
2022-07-30T18:04:41.977Z,1.70
2022-07-30T18:07:09.218Z,1.60
2022-07-30T18:09:40.137Z,1.40
2022-07-30T18:12:07.967Z,2.45
2022-07-30T18:14:34.835Z,2.50
2022-07-30T18:17:02.753Z,2.40
2022-07-30T18:19:29.706Z,2.78
2022-07-30T18:21:57.102Z,3.13
2022-07-30T18:24:24.939Z,3.65
2022-07-30T18:26:52.345Z,4.20
2022-07-30T18:29:19.282Z,5.28
2022-07-30T18:31:48.138Z,5.88
2022-07-30T18:34:15.424Z,4.60
2022-07-30T18:36:42.488Z,4.60
2022-07-30T18:39:09.624Z,5.53
2022-07-30T18:41:36.709Z,5.15
2022-07-30T18:44:04.052Z,6.53
2022-07-30T18:46:30.909Z,5.55
2022-07-30T18:48:59.228Z,6.85
2022-07-30T18:51:34.006Z,6.07
2022-07-30T18:54:01.003Z,6.60
2022-07-30T18:56:28.250Z,7.40
2022-07-30T18:58:55.090Z,7.22
2022-07-30T19:01:22.846Z,7.07
2022-07-30T19:03:49.993Z,6.95
2022-07-30T19:06:17.121Z,8.02
2022-07-30T19:08:48.669Z,6.45
2022-07-30T19:11:15.678Z,6.90
2022-07-30T19:13:42.587Z,7.07
2022-07-30T19:16:10.570Z,6.38
2022-07-30T19:18:37.538Z,6.55
2022-07-30T19:21:04.574Z,7.60
2022-07-30T19:23:31.420Z,8.75
2022-07-30T19:25:58.313Z,7.43
2022-07-30T19:28:25.241Z,6.43
2022-07-30T19:30:52.092Z,7.75
2022-07-30T19:33:19.086Z,8.35
2022-07-30T19:35:47.176Z,6.25
2022-07-30T19:38:21.688Z,7.90
2022-07-30T19:40:51.197Z,6.30
2022-07-30T19:43:18.079Z,6.07
2022-07-30T19:46:09.188Z,6.43
2022-07-30T19:48:37.350Z,6.55
2022-07-30T19:51:05.733Z,6.70
2022-07-30T19:53:44.533Z,7.68
2022-07-30T19:56:12.563Z,7.63
2022-07-30T19:58:41.800Z,8.13
2022-07-30T20:01:10.130Z,7.60
2022-07-30T20:03:38.838Z,7.40
2022-07-30T20:06:07.644Z,7.55
2022-07-30T20:08:36.429Z,7.40
2022-07-30T20:11:07.271Z,6.72
2022-07-30T20:13:43.951Z,6.53
2022-07-30T20:16:12.151Z,7.95
2022-07-30T20:18:40.301Z,6.53
2022-07-30T20:21:12.630Z,7.90
2022-07-30T20:23:42.274Z,7.18
2022-07-30T20:26:13.738Z,7.70
2022-07-30T20:28:45.706Z,7.47
2022-07-30T20:31:13.684Z,7.55
2022-07-30T20:33:42.196Z,8.10
2022-07-30T20:36:09.952Z,7.00
2022-07-30T20:38:38.860Z,8.38
2022-07-30T20:41:10.289Z,10.27
2022-07-30T20:43:51.552Z,8.25
2022-07-30T20:46:22.871Z,7.90
2022-07-30T20:48:52.161Z,7.80
2022-07-30T20:51:19.157Z,7.18
2022-07-30T20:53:47.070Z,8.85
2022-07-30T20:56:16.236Z,7.50
2022-07-30T20:58:48.266Z,8.85
2022-07-30T21:01:17.478Z,8.85
2022-07-30T21:03:48.978Z,9.43
2022-07-30T21:06:17.195Z,8.35
2022-07-30T21:08:44.003Z,8.77
2022-07-30T21:11:12.637Z,8.00
2022-07-30T21:13:41.432Z,8.73
2022-07-30T21:16:15.396Z,8.30
2022-07-30T21:18:49.260Z,8.60
2022-07-30T21:21:30.549Z,10.37
2022-07-30T21:24:06.536Z,9.77
2022-07-30T21:26:40.411Z,9.35
2022-07-30T21:29:08.511Z,8.50
2022-07-30T21:31:57.966Z,9.20
2022-07-30T21:34:26.461Z,7.68
2022-07-30T21:36:53.829Z,9.65
2022-07-30T21:39:20.777Z,9.65
2022-07-30T21:41:56.580Z,9.02
2022-07-30T21:44:23.829Z,8.50
2022-07-30T21:46:50.831Z,7.03
2022-07-30T21:49:17.792Z,6.63
2022-07-30T21:51:44.800Z,7.55
2022-07-30T21:54:13.079Z,7.10
2022-07-30T21:56:44.028Z,7.78
2022-07-30T21:59:11.514Z,7.90
2022-07-30T22:01:39.066Z,6.95
2022-07-30T22:04:14.715Z,7.72
2022-07-30T22:06:43.671Z,7.40
2022-07-30T22:09:18.337Z,9.18
2022-07-30T22:11:53.275Z,8.35
2022-07-30T22:14:20.271Z,9.85
2022-07-30T22:16:47.596Z,8.02
2022-07-30T22:19:15.653Z,8.93
2022-07-30T22:21:46.250Z,8.05
2022-07-30T22:24:29.704Z,7.90
2022-07-30T22:27:11.763Z,6.43
2022-07-30T22:29:43.359Z,8.05
2022-07-30T22:32:11.896Z,6.75
2022-07-30T22:34:38.934Z,7.15
2022-07-30T22:37:09.083Z,7.25
2022-07-30T22:39:51.874Z,7.35
2022-07-30T22:42:24.917Z,7.82
2022-07-30T22:44:55.279Z,7.93
2022-07-30T22:47:51.316Z,7.97
2022-07-30T22:50:10.819Z,8.18
2022-07-30T22:52:50.117Z,7.10
2022-07-30T22:55:23.052Z,6.97
2022-07-30T22:57:51.013Z,8.40
2022-07-30T23:00:27.241Z,7.88
2022-07-30T23:02:56.735Z,6.88
2022-07-30T23:05:23.969Z,7.30
2022-07-30T23:07:51.052Z,8.57
2022-07-30T23:10:20.360Z,10.35
2022-07-30T23:15:37.955Z,9.18
2022-07-30T23:18:04.815Z,8.70
2022-07-30T23:20:31.773Z,8.15
2022-07-30T23:22:59.209Z,8.25
2022-07-30T23:25:26.144Z,9.82
2022-07-30T23:28:05.446Z,8.95
2022-07-30T23:30:34.069Z,9.40
2022-07-30T23:33:02.640Z,8.20
2022-07-30T23:35:29.503Z,7.88
2022-07-30T23:37:57.310Z,9.73
2022-07-30T23:40:24.316Z,9.73
2022-07-30T23:42:51.821Z,9.27
2022-07-30T23:45:19.313Z,9.27
2022-07-30T23:48:01.470Z,8.20
2022-07-30T23:50:32.215Z,7.75
2022-07-30T23:53:00.473Z,7.93
2022-07-30T23:55:27.679Z,8.77
2022-07-30T23:57:55.021Z,8.07
